• pl
  • eng

Awiacja
WIADOMOŚCI
ostatnia aktualizacja: 06.03.2019 14:41
Szanowni Państwo,

uprzejmie informujemy, że z dniem 01.01.2019 roku z obszaru MOLC zostało wyłączone BPM we Wrocławiu. Jego zadania zostały przejęte przez BPM w Krakowie.

Komunikaty METAR z lotnisk wojskowych. 08:01 24.04.2019

METAR EPCE 240630Z 13015KT 9999 SCT168 13/M01
Q1014 RMK 128 040 3/3=

METAR EPDA 240630Z 12012KT 9999 FEW081 BKN114 BKN158 13/02
Q1012 RMK 134 045 7/1=

METAR EPDE 240630Z 12014KT CAVOK 12/02 Q1019 RMK 121 048 6/6=

METAR EPIR 240630Z 12020KT CAVOK 12/01 Q1014 RMK 124 044 7/7=

METAR EPKS 240630Z 12017KT 9999 BKN120 15/05 Q1011 RMK 145 053 6/6=

METAR EPLK 240630Z NIL=

METAR EPLY 240630Z 13010KT CAVOK 13/03 Q1015 RMK 129 051 7/7=

METAR EPMB 240630Z 13017KT CAVOK 14/M00 Q1016 RMK 135 039 1/1=

METAR EPMI 240630Z 10016KT 9999 BKN090 13/02 Q1011 RMK 126 050 7/7=

METAR EPMM 240630Z 13013G23KT 100V160 CAVOK 11/00 Q1019 RMK 113 047
4/4=

METAR EPNA 240630Z NIL=

METAR EPOK 240630Z 13014KT CAVOK 11/03
Q1016 RMK 108 060 1/1=

METAR EPPR 240630Z 14012KT CAVOK 14/M01 Q1016 RMK 137 037 1/1=

METAR EPPW 240630Z 11014KT 9999 SCT040 BKN070 13/02 Q1013 RMK 126 049
7/3=

METAR EPRA 240630Z NIL=

METAR EPSN 240630Z 11016KT 9999 SCT090 13/03 Q1010 RMK 133 049 4/4=

METAR EPTM 240630Z 13008KT CAVOK 13/04 Q1016 RMK 125 056 6/6=
 METAR EPSN
Lokalizacja:EPSN Świdwin
Czas:06:30 UTC
Średni kierunek wiatru:110 °
Średnia prędkość wiatru:16 węzłów
Widzialność:10 km i więcej
Pierwsza warstwa chmur:3/8 do 4/8, wysokość podstawy 9000 FT
Temperatura powietrza:13 °C
Temperatura punktu rosy:3 °C
Ciśnienie QNH:1010 hPa
Dokładna temperatura powietrza:13,3 °C
Dokładna wilgotność względna:49 %
Zachmurzenie przez wszystkie piętra chmur:4/8
Zachmurzenie przez chmury niskie:4/8
Awiacja.imgw.pl jest pogodowym serwisem informacyjnym
Instytutu Meteorologii i Gospodarki Wodnej Państwowego Instytutu Badawczego.
Copyright IMGW PIB 2009-2011© Wszelkie prawa zastrzeżone.